sensor_id;sensor_type;location;lat;lon;timestamp;temperature;humidity
65087;DHT22;52094;51.234;-2.310;2022-09-01T00:01:16;15.90;59.10
65087;DHT22;52094;51.234;-2.310;2022-09-01T00:05:08;15.90;59.30
65087;DHT22;52094;51.234;-2.310;2022-09-01T00:08:55;15.80;59.40
65087;DHT22;52094;51.234;-2.310;2022-09-01T00:12:37;15.70;59.90
65087;DHT22;52094;51.234;-2.310;2022-09-01T00:16:20;15.70;59.80
65087;DHT22;52094;51.234;-2.310;2022-09-01T00:20:04;15.70;59.70
65087;DHT22;52094;51.234;-2.310;2022-09-01T00:23:46;15.60;60.10
65087;DHT22;52094;51.234;-2.310;2022-09-01T00:27:28;15.60;59.90
65087;DHT22;52094;51.234;-2.310;2022-09-01T00:31:48;15.50;59.90
65087;DHT22;52094;51.234;-2.310;2022-09-01T00:35:31;15.40;62.20
65087;DHT22;52094;51.234;-2.310;2022-09-01T00:39:17;15.40;60.00
65087;DHT22;52094;51.234;-2.310;2022-09-01T00:42:59;15.30;60.00
65087;DHT22;52094;51.234;-2.310;2022-09-01T00:46:46;15.20;60.10
65087;DHT22;52094;51.234;-2.310;2022-09-01T00:50:36;15.20;60.70
65087;DHT22;52094;51.234;-2.310;2022-09-01T00:54:22;15.10;60.40
65087;DHT22;52094;51.234;-2.310;2022-09-01T00:58:06;15.00;60.60
65087;DHT22;52094;51.234;-2.310;2022-09-01T01:02:00;14.90;60.70
65087;DHT22;52094;51.234;-2.310;2022-09-01T01:05:47;14.80;60.90
65087;DHT22;52094;51.234;-2.310;2022-09-01T01:09:39;14.80;61.40
65087;DHT22;52094;51.234;-2.310;2022-09-01T01:13:22;14.70;61.50
65087;DHT22;52094;51.234;-2.310;2022-09-01T01:17:06;14.70;61.30
65087;DHT22;52094;51.234;-2.310;2022-09-01T01:21:01;14.60;61.50
65087;DHT22;52094;51.234;-2.310;2022-09-01T01:25:03;14.60;63.30
65087;DHT22;52094;51.234;-2.310;2022-09-01T01:28:45;14.50;61.80
65087;DHT22;52094;51.234;-2.310;2022-09-01T01:32:28;14.50;62.10
65087;DHT22;52094;51.234;-2.310;2022-09-01T01:36:14;14.50;62.30
65087;DHT22;52094;51.234;-2.310;2022-09-01T01:39:57;14.50;62.70
65087;DHT22;52094;51.234;-2.310;2022-09-01T01:43:39;14.50;62.80
65087;DHT22;52094;51.234;-2.310;2022-09-01T01:47:22;14.50;63.00
65087;DHT22;52094;51.234;-2.310;2022-09-01T01:51:04;14.50;63.10
65087;DHT22;52094;51.234;-2.310;2022-09-01T01:54:47;14.50;63.60
65087;DHT22;52094;51.234;-2.310;2022-09-01T01:58:29;14.60;63.90
65087;DHT22;52094;51.234;-2.310;2022-09-01T02:02:11;14.60;64.30
65087;DHT22;52094;51.234;-2.310;2022-09-01T02:05:54;14.70;64.80
65087;DHT22;52094;51.234;-2.310;2022-09-01T02:09:36;14.80;64.80
65087;DHT22;52094;51.234;-2.310;2022-09-01T02:13:23;15.00;64.90
65087;DHT22;52094;51.234;-2.310;2022-09-01T02:17:11;15.10;64.70
65087;DHT22;52094;51.234;-2.310;2022-09-01T02:20:54;15.20;67.30
65087;DHT22;52094;51.234;-2.310;2022-09-01T02:24:39;15.30;64.50
65087;DHT22;52094;51.234;-2.310;2022-09-01T02:28:34;15.40;64.90
65087;DHT22;52094;51.234;-2.310;2022-09-01T02:32:17;15.40;64.60
65087;DHT22;52094;51.234;-2.310;2022-09-01T02:36:06;15.40;64.80
65087;DHT22;52094;51.234;-2.310;2022-09-01T02:39:49;15.40;64.70
65087;DHT22;52094;51.234;-2.310;2022-09-01T02:43:31;15.40;65.10
65087;DHT22;52094;51.234;-2.310;2022-09-01T02:47:14;15.40;65.10
65087;DHT22;52094;51.234;-2.310;2022-09-01T02:51:00;15.40;65.00
65087;DHT22;52094;51.234;-2.310;2022-09-01T02:54:43;15.40;64.80
65087;DHT22;52094;51.234;-2.310;2022-09-01T02:58:29;15.30;65.20
65087;DHT22;52094;51.234;-2.310;2022-09-01T03:02:14;15.30;65.10
65087;DHT22;52094;51.234;-2.310;2022-09-01T03:05:56;15.30;65.40
65087;DHT22;52094;51.234;-2.310;2022-09-01T03:09:38;15.20;65.70
65087;DHT22;52094;51.234;-2.310;2022-09-01T03:13:22;15.20;65.90
65087;DHT22;52094;51.234;-2.310;2022-09-01T03:17:04;15.20;66.00
65087;DHT22;52094;51.234;-2.310;2022-09-01T03:20:47;15.20;66.20
65087;DHT22;52094;51.234;-2.310;2022-09-01T03:29:33;15.10;69.40
65087;DHT22;52094;51.234;-2.310;2022-09-01T03:33:19;15.10;66.60
65087;DHT22;52094;51.234;-2.310;2022-09-01T03:37:02;15.00;66.80
65087;DHT22;52094;51.234;-2.310;2022-09-01T04:14:41;15.20;70.00
65087;DHT22;52094;51.234;-2.310;2022-09-01T04:29:01;15.20;70.10
65087;DHT22;52094;51.234;-2.310;2022-09-01T04:33:37;15.20;70.00
65087;DHT22;52094;51.234;-2.310;2022-09-01T04:38:32;15.30;70.00
65087;DHT22;52094;51.234;-2.310;2022-09-01T04:42:40;15.20;70.50
65087;DHT22;52094;51.234;-2.310;2022-09-01T04:46:52;15.20;67.80
65087;DHT22;52094;51.234;-2.310;2022-09-01T05:25:58;15.50;69.90
65087;DHT22;52094;51.234;-2.310;2022-09-01T05:29:40;15.60;67.90
65087;DHT22;52094;51.234;-2.310;2022-09-01T05:33:22;15.60;68.00
65087;DHT22;52094;51.234;-2.310;2022-09-01T05:37:07;15.60;67.90
65087;DHT22;52094;51.234;-2.310;2022-09-01T05:41:00;15.70;68.00
65087;DHT22;52094;51.234;-2.310;2022-09-01T05:44:44;15.70;68.30
65087;DHT22;52094;51.234;-2.310;2022-09-01T05:48:33;15.70;68.10
65087;DHT22;52094;51.234;-2.310;2022-09-01T05:52:20;15.70;68.00
65087;DHT22;52094;51.234;-2.310;2022-09-01T05:56:15;15.80;68.00
65087;DHT22;52094;51.234;-2.310;2022-09-01T05:59:57;15.90;68.00
65087;DHT22;52094;51.234;-2.310;2022-09-01T06:03:39;15.90;68.00
65087;DHT22;52094;51.234;-2.310;2022-09-01T06:07:25;16.00;68.20
65087;DHT22;52094;51.234;-2.310;2022-09-01T06:11:10;16.10;68.10
65087;DHT22;52094;51.234;-2.310;2022-09-01T06:14:58;16.20;68.10
65087;DHT22;52094;51.234;-2.310;2022-09-01T06:18:41;16.20;68.10
65087;DHT22;52094;51.234;-2.310;2022-09-01T06:22:26;16.20;68.20
65087;DHT22;52094;51.234;-2.310;2022-09-01T06:26:27;16.40;68.20
65087;DHT22;52094;51.234;-2.310;2022-09-01T06:30:10;16.50;69.50
65087;DHT22;52094;51.234;-2.310;2022-09-01T06:34:04;16.60;68.00
65087;DHT22;52094;51.234;-2.310;2022-09-01T06:37:47;16.70;67.80
65087;DHT22;52094;51.234;-2.310;2022-09-01T06:41:29;16.70;67.80
65087;DHT22;52094;51.234;-2.310;2022-09-01T06:45:14;16.70;67.90
65087;DHT22;52094;51.234;-2.310;2022-09-01T06:48:56;16.70;68.00
65087;DHT22;52094;51.234;-2.310;2022-09-01T06:52:40;16.80;68.00
65087;DHT22;52094;51.234;-2.310;2022-09-01T06:56:43;16.80;68.20
65087;DHT22;52094;51.234;-2.310;2022-09-01T07:00:35;16.90;68.20
65087;DHT22;52094;51.234;-2.310;2022-09-01T07:04:22;16.90;68.10
65087;DHT22;52094;51.234;-2.310;2022-09-01T07:08:07;17.00;68.00
65087;DHT22;52094;51.234;-2.310;2022-09-01T07:11:52;17.10;67.90
65087;DHT22;52094;51.234;-2.310;2022-09-01T07:15:56;17.10;68.00
65087;DHT22;52094;51.234;-2.310;2022-09-01T07:19:59;17.20;68.20
65087;DHT22;52094;51.234;-2.310;2022-09-01T07:24:01;17.30;68.30
65087;DHT22;52094;51.234;-2.310;2022-09-01T07:27:51;17.50;68.10
65087;DHT22;52094;51.234;-2.310;2022-09-01T07:31:40;17.70;67.90
65087;DHT22;52094;51.234;-2.310;2022-09-01T07:35:44;17.70;67.50
65087;DHT22;52094;51.234;-2.310;2022-09-01T07:39:47;17.70;67.70
65087;DHT22;52094;51.234;-2.310;2022-09-01T07:43:31;17.90;67.80
65087;DHT22;52094;51.234;-2.310;2022-09-01T07:47:14;18.00;67.80
65087;DHT22;52094;51.234;-2.310;2022-09-01T07:51:20;18.20;67.50
65087;DHT22;52094;51.234;-2.310;2022-09-01T07:55:18;18.30;67.70
65087;DHT22;52094;51.234;-2.310;2022-09-01T07:59:00;18.50;67.40
65087;DHT22;52094;51.234;-2.310;2022-09-01T08:02:44;18.70;67.20
65087;DHT22;52094;51.234;-2.310;2022-09-01T08:06:28;18.80;67.00
65087;DHT22;52094;51.234;-2.310;2022-09-01T08:10:19;18.90;67.00
65087;DHT22;52094;51.234;-2.310;2022-09-01T08:14:01;19.10;66.40
65087;DHT22;52094;51.234;-2.310;2022-09-01T08:17:44;19.20;66.70
65087;DHT22;52094;51.234;-2.310;2022-09-01T08:21:33;19.50;67.20
65087;DHT22;52094;51.234;-2.310;2022-09-01T08:25:16;19.80;67.10
65087;DHT22;52094;51.234;-2.310;2022-09-01T08:29:05;20.10;66.40
65087;DHT22;52094;51.234;-2.310;2022-09-01T08:32:47;20.40;65.90
65087;DHT22;52094;51.234;-2.310;2022-09-01T08:36:48;20.60;65.50
65087;DHT22;52094;51.234;-2.310;2022-09-01T08:40:31;21.10;65.50
65087;DHT22;52094;51.234;-2.310;2022-09-01T08:48:37;22.10;62.40
65087;DHT22;52094;51.234;-2.310;2022-09-01T08:52:48;22.20;59.40
65087;DHT22;52094;51.234;-2.310;2022-09-01T08:56:33;22.60;63.70
65087;DHT22;52094;51.234;-2.310;2022-09-01T09:00:22;23.20;64.10
65087;DHT22;52094;51.234;-2.310;2022-09-01T09:09:06;24.00;57.20
65087;DHT22;52094;51.234;-2.310;2022-09-01T09:16:52;23.70;57.40
65087;DHT22;52094;51.234;-2.310;2022-09-01T09:20:35;23.60;57.00
65087;DHT22;52094;51.234;-2.310;2022-09-01T09:24:28;23.90;60.10
65087;DHT22;52094;51.234;-2.310;2022-09-01T09:28:28;24.20;57.40
65087;DHT22;52094;51.234;-2.310;2022-09-01T09:32:10;24.30;57.80
65087;DHT22;52094;51.234;-2.310;2022-09-01T09:36:18;24.70;60.70
65087;DHT22;52094;51.234;-2.310;2022-09-01T09:44:14;26.70;50.30
65087;DHT22;52094;51.234;-2.310;2022-09-01T09:47:57;27.40;54.30
65087;DHT22;52094;51.234;-2.310;2022-09-01T09:51:42;27.70;54.20
65087;DHT22;52094;51.234;-2.310;2022-09-01T09:55:27;27.90;53.10
65087;DHT22;52094;51.234;-2.310;2022-09-01T09:59:31;28.20;51.70
65087;DHT22;52094;51.234;-2.310;2022-09-01T10:03:42;28.80;47.30
65087;DHT22;52094;51.234;-2.310;2022-09-01T10:07:26;29.40;47.80
65087;DHT22;52094;51.234;-2.310;2022-09-01T10:11:08;29.70;50.90
65087;DHT22;52094;51.234;-2.310;2022-09-01T10:18:47;30.80;46.10
65087;DHT22;52094;51.234;-2.310;2022-09-01T10:22:33;31.20;48.20
65087;DHT22;52094;51.234;-2.310;2022-09-01T10:26:32;31.90;47.70
65087;DHT22;52094;51.234;-2.310;2022-09-01T10:30:17;32.50;41.30
65087;DHT22;52094;51.234;-2.310;2022-09-01T10:34:06;33.00;44.40
65087;DHT22;52094;51.234;-2.310;2022-09-01T10:37:53;33.40;43.50
65087;DHT22;52094;51.234;-2.310;2022-09-01T10:45:35;34.70;39.70
65087;DHT22;52094;51.234;-2.310;2022-09-01T10:53:40;34.90;38.20
65087;DHT22;52094;51.234;-2.310;2022-09-01T10:57:43;34.20;35.70
65087;DHT22;52094;51.234;-2.310;2022-09-01T11:06:12;33.30;35.30
65087;DHT22;52094;51.234;-2.310;2022-09-01T11:14:21;32.20;36.60
65087;DHT22;52094;51.234;-2.310;2022-09-01T11:18:32;32.10;37.10
65087;DHT22;52094;51.234;-2.310;2022-09-01T11:30:33;31.30;35.40
65087;DHT22;52094;51.234;-2.310;2022-09-01T11:34:19;30.10;37.40
65087;DHT22;52094;51.234;-2.310;2022-09-01T11:38:04;29.00;39.00
65087;DHT22;52094;51.234;-2.310;2022-09-01T11:46:14;27.40;40.30
65087;DHT22;52094;51.234;-2.310;2022-09-01T11:50:05;26.80;41.20
65087;DHT22;52094;51.234;-2.310;2022-09-01T11:53:48;26.20;41.70
65087;DHT22;52094;51.234;-2.310;2022-09-01T11:57:37;25.80;42.50
65087;DHT22;52094;51.234;-2.310;2022-09-01T12:05:24;25.20;44.10
65087;DHT22;52094;51.234;-2.310;2022-09-01T12:09:06;25.20;44.60
65087;DHT22;52094;51.234;-2.310;2022-09-01T12:12:48;25.20;44.20
65087;DHT22;52094;51.234;-2.310;2022-09-01T12:16:31;25.20;44.20
65087;DHT22;52094;51.234;-2.310;2022-09-01T12:20:23;25.20;44.60
65087;DHT22;52094;51.234;-2.310;2022-09-01T12:24:23;25.50;45.10
65087;DHT22;52094;51.234;-2.310;2022-09-01T12:28:05;25.90;44.60
65087;DHT22;52094;51.234;-2.310;2022-09-01T12:31:52;26.00;44.20
65087;DHT22;52094;51.234;-2.310;2022-09-01T12:35:34;26.10;44.10
65087;DHT22;52094;51.234;-2.310;2022-09-01T12:42:58;25.90;43.80
65087;DHT22;52094;51.234;-2.310;2022-09-01T12:46:43;25.60;44.30
65087;DHT22;52094;51.234;-2.310;2022-09-01T12:54:10;25.00;44.60
65087;DHT22;52094;51.234;-2.310;2022-09-01T12:57:55;24.80;45.10
65087;DHT22;52094;51.234;-2.310;2022-09-01T13:01:39;24.70;45.50
65087;DHT22;52094;51.234;-2.310;2022-09-01T13:05:27;24.80;45.70
65087;DHT22;52094;51.234;-2.310;2022-09-01T13:09:15;24.90;45.50
65087;DHT22;52094;51.234;-2.310;2022-09-01T13:12:57;24.90;45.60
65087;DHT22;52094;51.234;-2.310;2022-09-01T13:16:39;25.00;45.70
65087;DHT22;52094;51.234;-2.310;2022-09-01T13:20:22;25.00;45.40
65087;DHT22;52094;51.234;-2.310;2022-09-01T13:24:05;25.00;45.20
65087;DHT22;52094;51.234;-2.310;2022-09-01T13:27:48;24.90;45.30
65087;DHT22;52094;51.234;-2.310;2022-09-01T13:31:30;24.80;45.40
65087;DHT22;52094;51.234;-2.310;2022-09-01T13:35:17;24.70;45.60
65087;DHT22;52094;51.234;-2.310;2022-09-01T13:39:03;24.70;46.00
65087;DHT22;52094;51.234;-2.310;2022-09-01T13:43:03;24.60;46.00
65087;DHT22;52094;51.234;-2.310;2022-09-01T13:46:46;24.60;46.80
65087;DHT22;52094;51.234;-2.310;2022-09-01T13:50:50;24.40;46.20
65087;DHT22;52094;51.234;-2.310;2022-09-01T13:54:56;24.40;46.10
65087;DHT22;52094;51.234;-2.310;2022-09-01T13:58:38;24.30;46.10
65087;DHT22;52094;51.234;-2.310;2022-09-01T14:02:20;24.20;46.10
65087;DHT22;52094;51.234;-2.310;2022-09-01T14:06:02;24.10;46.40
65087;DHT22;52094;51.234;-2.310;2022-09-01T14:09:45;24.30;46.90
65087;DHT22;52094;51.234;-2.310;2022-09-01T14:13:27;24.60;46.50
65087;DHT22;52094;51.234;-2.310;2022-09-01T14:17:11;24.70;46.00
65087;DHT22;52094;51.234;-2.310;2022-09-01T14:20:53;24.60;45.90
65087;DHT22;52094;51.234;-2.310;2022-09-01T14:24:37;24.60;45.70
65087;DHT22;52094;51.234;-2.310;2022-09-01T14:28:21;24.60;46.10
65087;DHT22;52094;51.234;-2.310;2022-09-01T14:32:04;24.70;46.50
65087;DHT22;52094;51.234;-2.310;2022-09-01T14:35:49;24.70;46.00
65087;DHT22;52094;51.234;-2.310;2022-09-01T14:39:31;24.70;45.90
65087;DHT22;52094;51.234;-2.310;2022-09-01T14:43:13;24.70;46.20
65087;DHT22;52094;51.234;-2.310;2022-09-01T14:46:55;24.70;45.90
65087;DHT22;52094;51.234;-2.310;2022-09-01T14:50:45;24.70;46.30
65087;DHT22;52094;51.234;-2.310;2022-09-01T14:54:28;24.70;46.30
65087;DHT22;52094;51.234;-2.310;2022-09-01T14:58:11;24.70;46.60
65087;DHT22;52094;51.234;-2.310;2022-09-01T15:01:54;24.80;46.20
65087;DHT22;52094;51.234;-2.310;2022-09-01T15:05:37;24.70;46.10
65087;DHT22;52094;51.234;-2.310;2022-09-01T15:09:21;24.60;46.30
65087;DHT22;52094;51.234;-2.310;2022-09-01T15:13:03;24.60;46.30
65087;DHT22;52094;51.234;-2.310;2022-09-01T15:16:45;24.40;46.60
65087;DHT22;52094;51.234;-2.310;2022-09-01T15:20:29;24.40;46.80
65087;DHT22;52094;51.234;-2.310;2022-09-01T15:24:26;24.40;47.10
65087;DHT22;52094;51.234;-2.310;2022-09-01T15:28:09;24.40;47.00
65087;DHT22;52094;51.234;-2.310;2022-09-01T15:31:52;24.50;47.10
65087;DHT22;52094;51.234;-2.310;2022-09-01T15:35:34;24.50;47.40
65087;DHT22;52094;51.234;-2.310;2022-09-01T15:39:17;24.60;47.30
65087;DHT22;52094;51.234;-2.310;2022-09-01T15:42:59;24.70;47.20
65087;DHT22;52094;51.234;-2.310;2022-09-01T15:46:41;24.70;47.10
65087;DHT22;52094;51.234;-2.310;2022-09-01T15:50:26;24.50;47.00
65087;DHT22;52094;51.234;-2.310;2022-09-01T15:54:18;24.30;47.40
65087;DHT22;52094;51.234;-2.310;2022-09-01T15:58:01;24.20;48.10
65087;DHT22;52094;51.234;-2.310;2022-09-01T16:01:44;24.10;47.90
65087;DHT22;52094;51.234;-2.310;2022-09-01T16:05:29;24.00;48.10
65087;DHT22;52094;51.234;-2.310;2022-09-01T16:09:12;23.90;48.10
65087;DHT22;52094;51.234;-2.310;2022-09-01T16:12:55;23.90;48.70
65087;DHT22;52094;51.234;-2.310;2022-09-01T16:20:37;23.80;49.00
65087;DHT22;52094;51.234;-2.310;2022-09-01T16:24:22;23.70;49.20
65087;DHT22;52094;51.234;-2.310;2022-09-01T16:28:27;23.60;48.70
65087;DHT22;52094;51.234;-2.310;2022-09-01T16:32:10;23.40;50.50
65087;DHT22;52094;51.234;-2.310;2022-09-01T16:40:14;23.10;49.90
65087;DHT22;52094;51.234;-2.310;2022-09-01T16:48:18;22.90;50.20
65087;DHT22;52094;51.234;-2.310;2022-09-01T17:00:05;22.50;50.80
65087;DHT22;52094;51.234;-2.310;2022-09-01T17:16:05;22.10;52.20
65087;DHT22;52094;51.234;-2.310;2022-09-01T17:19:50;22.10;52.90
65087;DHT22;52094;51.234;-2.310;2022-09-01T17:23:40;22.00;51.70
65087;DHT22;52094;51.234;-2.310;2022-09-01T17:27:38;21.90;52.30
65087;DHT22;52094;51.234;-2.310;2022-09-01T17:31:58;21.80;53.50
65087;DHT22;52094;51.234;-2.310;2022-09-01T17:55:49;21.20;54.10
65087;DHT22;52094;51.234;-2.310;2022-09-01T17:59:50;21.00;52.80
65087;DHT22;52094;51.234;-2.310;2022-09-01T18:11:54;20.70;55.00
65087;DHT22;52094;51.234;-2.310;2022-09-01T18:15:48;20.50;54.60
65087;DHT22;52094;51.234;-2.310;2022-09-01T18:19:40;20.30;55.10
65087;DHT22;52094;51.234;-2.310;2022-09-01T18:23:24;20.20;54.80
65087;DHT22;52094;51.234;-2.310;2022-09-01T18:27:07;20.00;54.10
65087;DHT22;52094;51.234;-2.310;2022-09-01T18:43:39;19.60;56.90
65087;DHT22;52094;51.234;-2.310;2022-09-01T18:47:30;19.40;56.90
65087;DHT22;52094;51.234;-2.310;2022-09-01T18:51:33;19.30;55.90
65087;DHT22;52094;51.234;-2.310;2022-09-01T19:03:31;19.00;57.80
65087;DHT22;52094;51.234;-2.310;2022-09-01T19:07:27;18.90;56.00
65087;DHT22;52094;51.234;-2.310;2022-09-01T19:11:22;18.80;55.90
65087;DHT22;52094;51.234;-2.310;2022-09-01T19:15:28;18.70;56.10
65087;DHT22;52094;51.234;-2.310;2022-09-01T19:27:02;18.50;57.60
65087;DHT22;52094;51.234;-2.310;2022-09-01T19:31:05;18.50;57.80
65087;DHT22;52094;51.234;-2.310;2022-09-01T19:35:00;18.40;57.10
65087;DHT22;52094;51.234;-2.310;2022-09-01T19:38:47;18.30;57.80
65087;DHT22;52094;51.234;-2.310;2022-09-01T19:46:33;18.20;57.20
65087;DHT22;52094;51.234;-2.310;2022-09-01T19:50:23;18.20;58.40
65087;DHT22;52094;51.234;-2.310;2022-09-01T19:54:23;18.20;58.20
65087;DHT22;52094;51.234;-2.310;2022-09-01T19:58:14;18.20;58.50
65087;DHT22;52094;51.234;-2.310;2022-09-01T20:02:22;18.10;57.70
65087;DHT22;52094;51.234;-2.310;2022-09-01T20:06:10;18.00;59.60
65087;DHT22;52094;51.234;-2.310;2022-09-01T20:10:08;17.90;58.00
65087;DHT22;52094;51.234;-2.310;2022-09-01T20:18:04;17.80;59.70
65087;DHT22;52094;51.234;-2.310;2022-09-01T20:21:48;17.70;58.20
65087;DHT22;52094;51.234;-2.310;2022-09-01T20:25:51;17.70;58.10
65087;DHT22;52094;51.234;-2.310;2022-09-01T20:37:44;17.50;59.80
65087;DHT22;52094;51.234;-2.310;2022-09-01T20:45:31;17.40;61.10
65087;DHT22;52094;51.234;-2.310;2022-09-01T20:49:15;17.40;59.20
65087;DHT22;52094;51.234;-2.310;2022-09-01T20:58:04;17.50;61.90
65087;DHT22;52094;51.234;-2.310;2022-09-01T21:02:18;17.50;61.00
65087;DHT22;52094;51.234;-2.310;2022-09-01T21:14:02;17.80;60.90
65087;DHT22;52094;51.234;-2.310;2022-09-01T21:22:02;17.80;61.40
65087;DHT22;52094;51.234;-2.310;2022-09-01T21:25:46;17.90;59.90
65087;DHT22;52094;51.234;-2.310;2022-09-01T21:33:41;17.90;61.70
65087;DHT22;52094;51.234;-2.310;2022-09-01T21:37:25;17.90;60.00
65087;DHT22;52094;51.234;-2.310;2022-09-01T21:41:07;17.90;60.10
65087;DHT22;52094;51.234;-2.310;2022-09-01T21:44:54;18.00;60.10
65087;DHT22;52094;51.234;-2.310;2022-09-01T21:48:37;18.00;60.30
65087;DHT22;52094;51.234;-2.310;2022-09-01T21:52:19;17.90;60.40
65087;DHT22;52094;51.234;-2.310;2022-09-01T21:56:01;17.90;60.60
65087;DHT22;52094;51.234;-2.310;2022-09-01T21:59:43;18.00;60.70
65087;DHT22;52094;51.234;-2.310;2022-09-01T22:03:25;18.00;60.70
65087;DHT22;52094;51.234;-2.310;2022-09-01T22:07:08;18.10;60.80
65087;DHT22;52094;51.234;-2.310;2022-09-01T22:10:55;18.20;60.80
65087;DHT22;52094;51.234;-2.310;2022-09-01T22:14:38;18.20;60.70
65087;DHT22;52094;51.234;-2.310;2022-09-01T22:18:21;18.20;60.70
65087;DHT22;52094;51.234;-2.310;2022-09-01T22:22:04;18.10;60.60
65087;DHT22;52094;51.234;-2.310;2022-09-01T22:25:46;18.10;60.50
65087;DHT22;52094;51.234;-2.310;2022-09-01T22:29:28;18.00;60.50
65087;DHT22;52094;51.234;-2.310;2022-09-01T22:33:10;17.90;60.60
65087;DHT22;52094;51.234;-2.310;2022-09-01T22:36:53;17.80;60.70
65087;DHT22;52094;51.234;-2.310;2022-09-01T22:40:41;17.70;60.90
65087;DHT22;52094;51.234;-2.310;2022-09-01T22:44:23;17.70;61.10
65087;DHT22;52094;51.234;-2.310;2022-09-01T22:48:06;17.50;61.30
65087;DHT22;52094;51.234;-2.310;2022-09-01T22:51:48;17.40;61.40
65087;DHT22;52094;51.234;-2.310;2022-09-01T22:55:30;17.40;61.50
65087;DHT22;52094;51.234;-2.310;2022-09-01T22:59:13;17.20;61.70
65087;DHT22;52094;51.234;-2.310;2022-09-01T23:02:55;17.20;62.00
65087;DHT22;52094;51.234;-2.310;2022-09-01T23:06:42;17.20;62.10
65087;DHT22;52094;51.234;-2.310;2022-09-01T23:10:25;17.20;62.60
65087;DHT22;52094;51.234;-2.310;2022-09-01T23:14:09;17.20;62.70
65087;DHT22;52094;51.234;-2.310;2022-09-01T23:17:51;17.20;62.80
65087;DHT22;52094;51.234;-2.310;2022-09-01T23:21:35;17.30;62.90
65087;DHT22;52094;51.234;-2.310;2022-09-01T23:25:17;17.30;63.00
65087;DHT22;52094;51.234;-2.310;2022-09-01T23:29:00;17.30;63.00
65087;DHT22;52094;51.234;-2.310;2022-09-01T23:32:43;17.30;63.00
65087;DHT22;52094;51.234;-2.310;2022-09-01T23:36:26;17.40;63.10
65087;DHT22;52094;51.234;-2.310;2022-09-01T23:40:09;17.40;63.20
65087;DHT22;52094;51.234;-2.310;2022-09-01T23:43:52;17.40;63.30
65087;DHT22;52094;51.234;-2.310;2022-09-01T23:47:34;17.40;63.30
65087;DHT22;52094;51.234;-2.310;2022-09-01T23:51:16;17.40;63.20
65087;DHT22;52094;51.234;-2.310;2022-09-01T23:54:59;17.30;63.10
65087;DHT22;52094;51.234;-2.310;2022-09-01T23:58:42;17.30;63.10
